Time;durP1;ratioP1;P1;durP2;ratioP2;P2;SDS_P1;SDS_P2;PMS_P1;PMS_P2;Temp;Humidity;BMP_temperature;BMP_pressure;BME280_temperature;BME280_humidity;BME280_pressure;Samples;Min_cycle;Max_cycle;Signal;HPM_P1;HPM_P2
2023/04/16 00:01:01;;;;;;;33.40;30.60;;;10.00;99.90;;;;;;5081202;28;20460;-79
2023/04/16 00:03:29;;;;;;;34.40;31.20;;;10.00;99.90;;;;;;5080477;28;20472;-79
2023/04/16 00:05:58;;;;;;;33.63;30.83;;;10.00;99.90;;;;;;5080312;28;20449;-79
2023/04/16 00:08:27;;;;;;;33.97;30.97;;;9.90;99.90;;;;;;5079988;28;20480;-79
2023/04/16 00:10:55;;;;;;;33.87;30.70;;;9.90;99.90;;;;;;5079783;28;20455;-79
2023/04/16 00:13:24;;;;;;;33.40;30.57;;;9.90;99.90;;;;;;5080084;28;20503;-79
2023/04/16 00:15:53;;;;;;;34.03;31.13;;;9.80;99.90;;;;;;5097740;28;20904;-79
2023/04/16 00:18:21;;;;;;;33.20;30.30;;;9.80;99.90;;;;;;5097956;28;20479;-79
2023/04/16 00:20:49;;;;;;;35.00;31.90;;;9.80;99.90;;;;;;5079577;28;20454;-79
2023/04/16 00:23:17;;;;;;;34.73;31.70;;;9.70;99.90;;;;;;5079692;28;20547;-79
2023/04/16 00:25:47;;;;;;;35.40;32.40;;;9.70;99.90;;;;;;5079638;28;20568;-79
2023/04/16 00:28:15;;;;;;;34.93;31.83;;;9.70;99.90;;;;;;5078949;28;20943;-79
2023/04/16 00:30:43;;;;;;;35.53;32.23;;;9.70;99.90;;;;;;5080035;28;20448;-79
2023/04/16 00:33:12;;;;;;;36.77;33.57;;;9.70;99.90;;;;;;5079906;28;20465;-79
2023/04/16 00:35:40;;;;;;;36.37;33.33;;;9.70;99.90;;;;;;5079572;28;20439;-79
2023/04/16 00:38:08;;;;;;;35.23;32.23;;;9.60;99.90;;;;;;5078989;28;20448;-79
2023/04/16 00:40:37;;;;;;;35.50;32.30;;;9.60;99.90;;;;;;5079163;28;20955;-79
2023/04/16 00:43:07;;;;;;;37.23;34.03;;;9.60;99.90;;;;;;5079374;28;20467;-79
2023/04/16 00:45:36;;;;;;;36.27;33.07;;;9.60;99.90;;;;;;5080160;28;20468;-79
2023/04/16 00:48:04;;;;;;;37.53;34.33;;;9.60;99.90;;;;;;5079431;28;20448;-79
2023/04/16 00:50:33;;;;;;;36.30;33.20;;;9.50;99.90;;;;;;5083099;28;20461;-79
2023/04/16 00:53:02;;;;;;;37.20;33.97;;;9.50;99.90;;;;;;5081587;28;20457;-79
2023/04/16 00:55:31;;;;;;;37.70;34.30;;;9.50;99.90;;;;;;5085225;28;20440;-79
2023/04/16 00:58:00;;;;;;;38.27;34.97;;;9.50;99.90;;;;;;5085820;28;20524;-79
2023/04/16 01:00:29;;;;;;;36.63;33.20;;;9.50;99.90;;;;;;5086437;28;20460;-79
2023/04/16 01:02:59;;;;;;;36.07;32.63;;;9.40;99.90;;;;;;5086799;28;20476;-79
2023/04/16 01:05:28;;;;;;;34.37;31.47;;;9.40;99.90;;;;;;5086688;28;20463;-80
2023/04/16 01:07:59;;;;;;;36.63;33.57;;;9.40;99.90;;;;;;5104447;28;20443;-79
2023/04/16 01:10:28;;;;;;;36.23;33.23;;;9.40;99.90;;;;;;5088545;28;20472;-79
2023/04/16 01:12:56;;;;;;;36.10;32.90;;;9.40;99.90;;;;;;5113469;28;20464;-79
2023/04/16 01:15:24;;;;;;;28.77;26.27;;;9.40;99.90;;;;;;5099272;28;20470;-79
2023/04/16 01:17:53;;;;;;;38.07;34.67;;;9.40;99.90;;;;;;5099654;28;20436;-79
2023/04/16 01:20:22;;;;;;;37.00;33.80;;;9.30;99.90;;;;;;5096050;28;20443;-79
2023/04/16 01:22:51;;;;;;;38.63;34.97;;;9.30;99.90;;;;;;5109838;28;20460;-79
2023/04/16 01:25:20;;;;;;;37.63;34.50;;;9.30;99.90;;;;;;5086510;28;20465;-79
2023/04/16 01:27:49;;;;;;;36.83;33.63;;;9.30;99.90;;;;;;5088170;28;20547;-79
2023/04/16 01:30:17;;;;;;;37.97;34.60;;;9.30;99.90;;;;;;5090036;28;20452;-79
2023/04/16 01:32:57;;;;;;;37.83;34.50;;;9.30;99.90;;;;;;5087557;28;20472;-79
2023/04/16 01:35:25;;;;;;;38.97;35.50;;;9.30;99.90;;;;;;5083709;28;20471;-79
2023/04/16 01:37:55;;;;;;;38.60;35.30;;;9.20;99.90;;;;;;5083826;28;20475;-79
2023/04/16 01:40:23;;;;;;;38.70;35.50;;;9.20;99.90;;;;;;5084055;28;20440;-79
2023/04/16 01:42:51;;;;;;;37.40;34.23;;;9.20;99.90;;;;;;5082954;28;20468;-79
2023/04/16 01:45:19;;;;;;;37.27;34.13;;;9.10;99.90;;;;;;5084044;28;20494;-79
2023/04/16 01:47:49;;;;;;;36.90;33.53;;;9.20;99.90;;;;;;5082857;28;20483;-80
2023/04/16 01:50:19;;;;;;;38.80;35.20;;;9.10;99.90;;;;;;5082352;28;20535;-79
2023/04/16 01:52:47;;;;;;;36.47;33.30;;;9.10;99.90;;;;;;5082283;28;20468;-79
2023/04/16 01:55:16;;;;;;;36.27;32.43;;;9.10;99.90;;;;;;5084230;28;20454;-79
2023/04/16 01:57:45;;;;;;;38.13;34.90;;;9.10;99.90;;;;;;5086492;28;20446;-81
2023/04/16 02:00:14;;;;;;;38.40;34.97;;;9.10;99.90;;;;;;5086213;28;20895;-80
2023/04/16 02:02:47;;;;;;;37.73;34.33;;;9.10;99.90;;;;;;5102740;28;20467;-80
2023/04/16 02:05:24;;;;;;;36.87;33.57;;;9.10;99.90;;;;;;5084674;28;20856;-80
2023/04/16 02:07:52;;;;;;;38.63;35.30;;;9.10;99.90;;;;;;5084574;28;20787;-79
2023/04/16 02:10:22;;;;;;;36.93;34.00;;;9.10;99.90;;;;;;5083937;28;20448;-79
2023/04/16 02:12:50;;;;;;;37.70;34.13;;;9.00;99.90;;;;;;5084140;28;20491;-80
2023/04/16 02:15:19;;;;;;;36.97;33.60;;;9.10;99.90;;;;;;5084028;28;20880;-80
2023/04/16 02:17:49;;;;;;;37.80;34.50;;;9.10;99.90;;;;;;5083877;28;20776;-80
2023/04/16 02:20:18;;;;;;;35.30;32.20;;;9.10;99.90;;;;;;5082856;28;20445;-80
2023/04/16 02:22:52;;;;;;;37.23;34.20;;;9.00;99.90;;;;;;5081922;28;20474;-79
2023/04/16 02:25:25;;;;;;;37.70;34.40;;;9.00;99.90;;;;;;5081944;28;20463;-79
2023/04/16 02:27:55;;;;;;;36.00;32.90;;;9.10;99.90;;;;;;5082132;28;20480;-79
2023/04/16 02:30:30;;;;;;;35.20;32.03;;;9.00;99.90;;;;;;5082301;28;20816;-80
2023/04/16 02:33:00;;;;;;;37.50;34.30;;;9.00;99.90;;;;;;5081685;28;20571;-80
2023/04/16 02:35:28;;;;;;;37.23;33.93;;;9.10;99.90;;;;;;5081355;28;20452;-80
2023/04/16 02:37:56;;;;;;;37.60;34.43;;;9.00;99.90;;;;;;5081505;28;20470;-80
2023/04/16 02:40:26;;;;;;;37.03;33.63;;;9.10;99.90;;;;;;5081693;28;20455;-80
2023/04/16 02:42:54;;;;;;;35.97;32.83;;;9.10;99.90;;;;;;5082225;28;20564;-79
2023/04/16 02:45:23;;;;;;;37.60;34.20;;;9.00;99.90;;;;;;5080930;28;20468;-79
2023/04/16 02:47:51;;;;;;;39.23;35.77;;;9.00;99.90;;;;;;5081373;28;20440;-79
2023/04/16 02:50:19;;;;;;;37.33;34.03;;;9.00;99.90;;;;;;5098665;28;20486;-80
2023/04/16 02:52:48;;;;;;;38.57;34.87;;;9.00;99.90;;;;;;5080074;28;20468;-79
2023/04/16 02:55:16;;;;;;;40.87;37.23;;;9.00;99.90;;;;;;5081449;28;20449;-79
2023/04/16 02:57:46;;;;;;;39.40;35.90;;;9.00;99.90;;;;;;5081400;28;20955;-79
2023/04/16 03:00:14;;;;;;;39.93;36.53;;;9.00;99.90;;;;;;5080855;28;20482;-79
2023/04/16 03:02:42;;;;;;;39.57;36.17;;;8.90;99.90;;;;;;5080851;28;21054;-79
2023/04/16 03:05:11;;;;;;;37.17;33.90;;;9.00;99.90;;;;;;5080435;28;20885;-79
2023/04/16 03:07:39;;;;;;;40.67;36.87;;;8.90;99.90;;;;;;5080367;28;20817;-79
2023/04/16 03:10:10;;;;;;;40.27;36.67;;;8.90;99.90;;;;;;5080230;28;20456;-79
2023/04/16 03:12:39;;;;;;;40.50;36.80;;;8.90;99.90;;;;;;5079816;28;20536;-79
2023/04/16 03:15:10;;;;;;;38.93;35.60;;;8.90;99.90;;;;;;5079926;28;20444;-79
2023/04/16 03:17:38;;;;;;;40.17;36.60;;;8.90;99.90;;;;;;5080637;28;20531;-79
2023/04/16 03:20:08;;;;;;;40.27;36.70;;;8.90;99.90;;;;;;5080969;28;20551;-79
2023/04/16 03:22:36;;;;;;;39.60;36.10;;;8.90;99.90;;;;;;5080796;28;20464;-79
2023/04/16 03:25:04;;;;;;;41.33;37.73;;;8.90;99.90;;;;;;5080875;28;20464;-79
2023/04/16 03:27:33;;;;;;;39.97;36.57;;;8.80;99.90;;;;;;5080419;28;20472;-79
2023/04/16 03:30:02;;;;;;;39.40;35.97;;;8.80;99.90;;;;;;5098491;28;20489;-79
2023/04/16 03:32:32;;;;;;;42.17;38.23;;;8.90;99.90;;;;;;5079082;28;20865;-79
2023/04/16 03:35:02;;;;;;;38.37;35.17;;;8.90;99.90;;;;;;5080414;28;20439;-79
2023/04/16 03:37:31;;;;;;;40.27;36.77;;;8.80;99.90;;;;;;5079694;28;20592;-79
2023/04/16 03:40:00;;;;;;;39.87;36.47;;;8.80;99.90;;;;;;5080126;28;20452;-79
2023/04/16 03:42:28;;;;;;;39.47;35.93;;;8.90;99.90;;;;;;5079731;28;20479;-79
2023/04/16 03:44:58;;;;;;;40.03;36.40;;;8.80;99.90;;;;;;5079164;28;20498;-79
2023/04/16 03:47:26;;;;;;;39.20;35.80;;;8.80;99.90;;;;;;5079745;28;20836;-79
2023/04/16 03:50:00;;;;;;;39.80;36.40;;;8.80;99.90;;;;;;5079710;28;20499;-79
2023/04/16 03:52:29;;;;;;;39.53;36.10;;;8.80;99.90;;;;;;5078889;28;20472;-79
2023/04/16 03:54:57;;;;;;;39.70;36.23;;;8.80;99.90;;;;;;5079797;28;20444;-79
2023/04/16 03:57:30;;;;;;;42.17;38.47;;;8.80;99.90;;;;;;5080582;28;20464;-79
2023/04/16 04:00:06;;;;;;;43.10;39.03;;;8.80;99.90;;;;;;5079815;28;20894;-79
2023/04/16 04:02:57;;;;;;;40.00;36.50;;;8.80;99.90;;;;;;5097285;28;20500;-79
2023/04/16 04:05:27;;;;;;;40.70;37.40;;;8.80;99.90;;;;;;5079856;28;20436;-79
2023/04/16 04:07:55;;;;;;;42.13;38.33;;;8.80;99.90;;;;;;5080019;28;20987;-79
2023/04/16 04:10:23;;;;;;;43.17;39.27;;;8.80;99.90;;;;;;5080475;28;20448;-79
2023/04/16 04:12:52;;;;;;;43.00;39.10;;;8.80;99.90;;;;;;5079343;28;20476;-79
2023/04/16 04:15:20;;;;;;;42.13;38.37;;;8.80;99.90;;;;;;5079282;28;20459;-79
2023/04/16 04:17:48;;;;;;;39.10;35.67;;;8.80;99.90;;;;;;5078399;28;20455;-79
2023/04/16 04:20:16;;;;;;;41.73;38.23;;;8.80;99.90;;;;;;5079073;28;20531;-79
2023/04/16 04:22:50;;;;;;;39.47;36.17;;;8.80;99.90;;;;;;5079196;28;20975;-79
2023/04/16 04:25:20;;;;;;;39.43;36.10;;;8.80;99.90;;;;;;5079823;28;20444;-79
2023/04/16 04:27:49;;;;;;;40.10;36.47;;;8.80;99.90;;;;;;5079543;28;20468;-79
2023/04/16 04:30:17;;;;;;;40.70;37.17;;;8.80;99.90;;;;;;5082669;28;20467;-80
2023/04/16 04:32:45;;;;;;;41.47;37.43;;;8.80;99.90;;;;;;5085281;28;20525;-79
2023/04/16 04:35:16;;;;;;;38.07;34.67;;;8.80;99.90;;;;;;5084570;28;20437;-80
2023/04/16 04:37:44;;;;;;;39.80;36.17;;;8.80;99.90;;;;;;5081116;28;20444;-79
2023/04/16 04:40:20;;;;;;;40.20;36.80;;;8.80;99.90;;;;;;5078986;28;20467;-80
2023/04/16 04:42:48;;;;;;;39.70;36.30;;;8.80;99.90;;;;;;5078470;28;20479;-79
2023/04/16 04:45:17;;;;;;;40.93;37.40;;;8.80;99.90;;;;;;5079002;28;20476;-79
2023/04/16 04:47:45;;;;;;;40.80;37.03;;;8.80;99.90;;;;;;5079122;28;20472;-79
2023/04/16 04:50:13;;;;;;;40.70;37.00;;;8.80;99.90;;;;;;5078642;28;20440;-79
2023/04/16 04:52:41;;;;;;;43.20;39.40;;;8.80;99.90;;;;;;5079390;28;20834;-79
2023/04/16 04:55:10;;;;;;;39.43;36.07;;;8.80;99.90;;;;;;5079759;28;20436;-79
2023/04/16 04:57:39;;;;;;;39.57;36.17;;;8.70;99.90;;;;;;5078119;28;20466;-79
2023/04/16 05:00:09;;;;;;;41.60;38.03;;;8.80;99.90;;;;;;5079093;28;20452;-79
2023/04/16 05:02:52;;;;;;;40.20;36.70;;;8.80;99.90;;;;;;5078120;28;20814;-79
2023/04/16 05:05:20;;;;;;;40.97;37.23;;;8.80;99.90;;;;;;5078902;28;20448;-79
2023/04/16 05:07:48;;;;;;;41.23;37.53;;;8.80;99.90;;;;;;5078805;28;20463;-79
2023/04/16 05:10:17;;;;;;;41.07;37.40;;;8.80;99.90;;;;;;5078566;28;20447;-79
2023/04/16 05:12:48;;;;;;;41.37;37.90;;;8.80;99.90;;;;;;5078302;28;20476;-79
2023/04/16 05:15:17;;;;;;;39.37;36.17;;;8.80;99.90;;;;;;5078499;28;20428;-79
2023/04/16 05:17:45;;;;;;;39.13;35.83;;;8.80;99.90;;;;;;5078666;28;20445;-79
2023/04/16 05:20:13;;;;;;;39.70;36.20;;;8.80;99.90;;;;;;5078671;28;20649;-79
2023/04/16 05:22:41;;;;;;;40.83;37.10;;;8.80;99.90;;;;;;5078913;28;20476;-79
2023/04/16 05:25:10;;;;;;;42.03;38.33;;;8.80;99.90;;;;;;5078209;28;20448;-79
2023/04/16 05:27:39;;;;;;;39.30;35.83;;;8.80;99.90;;;;;;5078533;28;20503;-79
2023/04/16 05:30:10;;;;;;;38.20;34.87;;;8.90;99.90;;;;;;5078670;28;20448;-79
2023/04/16 05:32:39;;;;;;;38.53;35.10;;;8.90;99.90;;;;;;5077993;28;20468;-79
2023/04/16 05:35:09;;;;;;;38.40;35.20;;;8.90;99.90;;;;;;5096487;28;20946;-79
2023/04/16 05:37:37;;;;;;;38.67;35.37;;;8.90;99.90;;;;;;5078141;28;20592;-79
2023/04/16 05:40:07;;;;;;;37.97;34.67;;;8.90;99.90;;;;;;5078582;28;20519;-79
2023/04/16 05:42:35;;;;;;;36.60;33.30;;;8.90;99.90;;;;;;5077909;28;20472;-79
2023/04/16 05:45:04;;;;;;;36.10;32.90;;;8.90;99.90;;;;;;5078254;28;20447;-79
2023/04/16 05:47:34;;;;;;;37.67;34.40;;;8.90;99.90;;;;;;5077770;28;20475;-79
2023/04/16 05:50:02;;;;;;;37.50;34.00;;;8.90;99.90;;;;;;5077809;28;20448;-79
2023/04/16 05:52:30;;;;;;;37.10;33.57;;;9.00;99.90;;;;;;5078145;28;20472;-79
2023/04/16 05:55:00;;;;;;;36.07;32.90;;;9.00;99.90;;;;;;5077504;28;20534;-79
2023/04/16 05:57:28;;;;;;;35.23;32.03;;;9.00;99.90;;;;;;5077540;28;20452;-79
2023/04/16 05:59:57;;;;;;;33.47;30.47;;;9.00;99.90;;;;;;5077082;28;20460;-79
2023/04/16 06:02:25;;;;;;;35.80;32.33;;;9.00;99.90;;;;;;5077181;28;20468;-79
2023/04/16 06:04:55;;;;;;;34.57;31.47;;;9.00;99.90;;;;;;5077481;28;20477;-79
2023/04/16 06:07:23;;;;;;;35.20;32.17;;;9.10;99.90;;;;;;5076821;28;20823;-79
2023/04/16 06:09:51;;;;;;;33.67;30.70;;;9.00;99.90;;;;;;5077450;28;20440;-79
2023/04/16 06:12:19;;;;;;;32.67;29.77;;;9.10;99.90;;;;;;5077241;28;20538;-79
2023/04/16 06:14:47;;;;;;;32.60;29.57;;;9.10;99.90;;;;;;5078841;28;20432;-79
2023/04/16 06:17:15;;;;;;;34.27;31.20;;;9.20;99.90;;;;;;5082103;28;20966;-79
2023/04/16 06:19:43;;;;;;;31.43;28.43;;;9.20;99.90;;;;;;5082060;28;20444;-79
2023/04/16 06:22:13;;;;;;;31.77;28.87;;;9.20;99.90;;;;;;5081847;28;20548;-79
2023/04/16 06:24:41;;;;;;;31.13;28.17;;;9.20;99.90;;;;;;5081561;28;20940;-79
2023/04/16 06:27:10;;;;;;;31.93;28.97;;;9.30;99.90;;;;;;5081082;28;20550;-79
2023/04/16 06:29:38;;;;;;;30.90;28.10;;;9.20;99.90;;;;;;5082106;28;20539;-79
2023/04/16 06:32:09;;;;;;;31.60;28.80;;;9.30;99.90;;;;;;5080749;28;20468;-79
2023/04/16 06:34:37;;;;;;;29.83;27.33;;;9.30;99.90;;;;;;5081371;28;20479;-79
2023/04/16 06:37:06;;;;;;;29.63;26.93;;;9.30;99.90;;;;;;5099365;28;20435;-79
2023/04/16 06:39:38;;;;;;;30.07;27.30;;;9.30;99.90;;;;;;5081482;28;20468;-79
2023/04/16 06:42:07;;;;;;;30.00;27.20;;;9.40;99.90;;;;;;5081416;28;20491;-79
2023/04/16 06:44:36;;;;;;;30.53;27.93;;;9.40;99.90;;;;;;5081078;28;20803;-79
2023/04/16 06:47:04;;;;;;;30.87;28.03;;;9.30;99.90;;;;;;5081780;28;20456;-79
2023/04/16 06:49:32;;;;;;;28.80;26.27;;;9.40;99.90;;;;;;5081139;28;20460;-79
2023/04/16 06:52:00;;;;;;;29.57;27.07;;;9.50;99.90;;;;;;5081976;28;20468;-79
2023/04/16 06:54:32;;;;;;;28.63;26.07;;;9.50;99.90;;;;;;5081574;28;20437;-79
2023/04/16 06:57:01;;;;;;;28.30;25.70;;;9.50;99.90;;;;;;5100499;28;20437;-79
2023/04/16 06:59:29;;;;;;;29.87;27.00;;;9.50;99.90;;;;;;5081381;28;20446;-79
2023/04/16 07:01:58;;;;;;;28.73;25.97;;;9.50;99.90;;;;;;5081794;28;20491;-79
2023/04/16 07:04:26;;;;;;;27.57;25.10;;;9.50;99.90;;;;;;5081063;28;20444;-79
2023/04/16 07:06:54;;;;;;;28.03;25.60;;;9.60;99.90;;;;;;5080355;28;20452;-79
2023/04/16 07:09:22;;;;;;;29.00;26.50;;;9.60;99.90;;;;;;5079658;28;20472;-79
2023/04/16 07:11:50;;;;;;;26.43;24.03;;;9.60;99.90;;;;;;5082418;28;20471;-79
2023/04/16 07:14:20;;;;;;;28.63;26.00;;;9.60;99.90;;;;;;5083776;28;20452;-79
2023/04/16 07:16:48;;;;;;;26.90;24.43;;;9.60;99.90;;;;;;5083402;28;20489;-79
2023/04/16 07:19:16;;;;;;;27.23;25.03;;;9.70;99.90;;;;;;5099576;28;20438;-79
2023/04/16 07:21:45;;;;;;;28.83;26.20;;;9.70;99.90;;;;;;5081143;28;20475;-79
2023/04/16 07:24:13;;;;;;;28.40;25.70;;;9.70;99.90;;;;;;5081225;28;20466;-79
2023/04/16 07:26:41;;;;;;;27.23;24.77;;;9.80;99.90;;;;;;5081193;28;20463;-79
2023/04/16 07:29:09;;;;;;;29.33;26.53;;;9.80;99.90;;;;;;5099318;28;20993;-79
2023/04/16 07:31:39;;;;;;;27.50;25.00;;;9.80;99.90;;;;;;5080298;28;20444;-79
2023/04/16 07:34:07;;;;;;;27.20;24.70;;;9.90;99.90;;;;;;5098621;28;21003;-79
2023/04/16 07:36:35;;;;;;;27.73;25.10;;;9.90;99.90;;;;;;5081158;28;20456;-79
2023/04/16 07:39:04;;;;;;;24.60;22.30;;;9.90;99.90;;;;;;5081021;28;20441;-79
2023/04/16 07:41:32;;;;;;;28.17;25.50;;;10.00;99.90;;;;;;5084572;28;20447;-79
2023/04/16 07:44:01;;;;;;;27.00;24.57;;;10.00;99.90;;;;;;5100734;28;20935;-79
2023/04/16 07:46:29;;;;;;;27.10;24.57;;;10.00;99.90;;;;;;5080587;28;20455;-80
2023/04/16 07:49:12;;;;;;;28.30;25.83;;;10.10;99.90;;;;;;5079862;28;20835;-79
2023/04/16 07:51:40;;;;;;;26.57;24.17;;;10.10;99.90;;;;;;5079829;28;20444;-79
2023/04/16 07:54:08;;;;;;;26.67;24.33;;;10.10;99.90;;;;;;5079727;28;20493;-79
2023/04/16 07:56:36;;;;;;;26.20;23.80;;;10.20;99.90;;;;;;5079494;28;20451;-79
2023/04/16 07:59:06;;;;;;;25.30;23.10;;;10.10;99.90;;;;;;5079052;28;20436;-79
2023/04/16 08:01:50;;;;;;;27.47;24.90;;;10.20;99.90;;;;;;5098155;28;20474;-79
2023/04/16 08:04:23;;;;;;;25.00;22.70;;;10.20;99.90;;;;;;5097107;28;20436;-79
2023/04/16 08:06:52;;;;;;;24.90;22.67;;;10.20;99.90;;;;;;5097778;28;20442;-79
2023/04/16 08:09:22;;;;;;;27.37;24.67;;;10.20;99.90;;;;;;5098254;28;20475;-79
2023/04/16 08:11:53;;;;;;;25.67;23.43;;;10.30;99.90;;;;;;5079673;28;20476;-79
2023/04/16 08:14:22;;;;;;;26.53;24.13;;;10.30;99.90;;;;;;5078846;28;20817;-79
2023/04/16 08:16:50;;;;;;;26.33;23.83;;;10.40;99.90;;;;;;5079054;28;20447;-79
2023/04/16 08:19:19;;;;;;;27.53;25.13;;;10.50;99.90;;;;;;5079871;28;20449;-79
2023/04/16 08:21:47;;;;;;;26.23;23.80;;;10.50;99.90;;;;;;5098510;28;20856;-79
2023/04/16 08:24:16;;;;;;;26.70;24.20;;;10.60;99.90;;;;;;5080540;28;20455;-79
2023/04/16 08:26:44;;;;;;;27.40;24.90;;;10.60;99.90;;;;;;5079548;28;20785;-79
2023/04/16 08:29:12;;;;;;;25.83;23.43;;;10.70;99.90;;;;;;5079826;28;20516;-79
2023/04/16 08:31:41;;;;;;;26.33;23.60;;;10.70;99.90;;;;;;5101238;28;20432;-79
2023/04/16 08:34:11;;;;;;;25.17;22.97;;;10.80;99.90;;;;;;5083262;28;20440;-79
2023/04/16 08:36:45;;;;;;;26.83;24.37;;;10.80;99.90;;;;;;5100754;28;20433;-79
2023/04/16 08:39:14;;;;;;;24.80;22.50;;;10.90;99.90;;;;;;5079178;28;20448;-78
2023/04/16 08:41:45;;;;;;;25.00;22.80;;;10.90;99.90;;;;;;5081088;28;20454;-79
2023/04/16 08:44:19;;;;;;;25.33;22.93;;;10.90;99.90;;;;;;5081730;28;20441;-79
2023/04/16 08:46:53;;;;;;;24.67;22.47;;;10.90;99.90;;;;;;5082451;28;20443;-79
2023/04/16 08:49:22;;;;;;;26.77;24.30;;;11.00;99.90;;;;;;5078359;28;20515;-79
2023/04/16 08:51:53;;;;;;;25.33;23.07;;;11.10;99.90;;;;;;5078503;28;20561;-79
2023/04/16 08:54:31;;;;;;;25.23;22.80;;;11.20;99.90;;;;;;5078262;28;20440;-78
2023/04/16 08:57:00;;;;;;;25.83;23.50;;;11.30;99.90;;;;;;5078510;28;20519;-78
2023/04/16 08:59:29;;;;;;;24.60;22.37;;;11.30;99.90;;;;;;5078224;28;20445;-78
2023/04/16 09:01:58;;;;;;;24.77;22.57;;;11.40;99.90;;;;;;5095959;28;20463;-78
2023/04/16 09:04:28;;;;;;;24.60;22.40;;;11.50;99.90;;;;;;5078467;28;20451;-78
2023/04/16 09:06:59;;;;;;;25.10;22.73;;;11.60;99.90;;;;;;5078365;28;20983;-78
2023/04/16 09:12:56;;;;;;;24.73;22.40;;;11.60;99.90;;;;;;5044331;28;21081;-80
2023/04/16 09:15:25;;;;;;;25.37;22.87;;;11.70;99.90;;;;;;5079104;28;20444;-78
2023/04/16 09:17:55;;;;;;;25.30;22.90;;;11.70;99.90;;;;;;5096387;28;20440;-78
2023/04/16 09:20:35;;;;;;;26.50;24.00;;;11.70;99.90;;;;;;5096217;28;20428;-79
2023/04/16 09:23:05;;;;;;;24.00;21.80;;;11.70;99.90;;;;;;5078239;28;20482;-78
2023/04/16 09:25:34;;;;;;;22.70;20.70;;;11.70;99.90;;;;;;5096455;28;20440;-79
2023/04/16 09:28:02;;;;;;;24.10;21.83;;;11.70;99.90;;;;;;5096153;28;20432;-78
2023/04/16 09:30:30;;;;;;;23.90;21.70;;;11.80;99.90;;;;;;5096836;28;20460;-78
2023/04/16 09:33:15;;;;;;;25.33;22.93;;;11.80;99.90;;;;;;5078321;28;20566;-79
2023/04/16 09:35:47;;;;;;;24.57;22.07;;;11.80;99.90;;;;;;5078681;28;20451;-78
2023/04/16 09:38:17;;;;;;;26.57;21.10;;;11.80;99.90;;;;;;5078702;28;20547;-79
2023/04/16 09:40:46;;;;;;;24.40;22.10;;;11.90;99.90;;;;;;5079309;28;20555;-79
2023/04/16 09:43:17;;;;;;;23.37;21.10;;;11.90;99.90;;;;;;5078757;28;20522;-79
2023/04/16 09:45:50;;;;;;;25.03;22.63;;;11.90;99.90;;;;;;5079043;28;20523;-79
2023/04/16 09:48:28;;;;;;;24.90;22.30;;;12.00;99.90;;;;;;5078939;28;20440;-79
2023/04/16 09:50:57;;;;;;;25.73;23.10;;;12.00;99.90;;;;;;5081365;28;20472;-79
2023/04/16 09:53:28;;;;;;;25.53;23.07;;;12.10;99.90;;;;;;5082032;28;20463;-79
2023/04/16 09:55:57;;;;;;;24.70;22.40;;;12.00;99.90;;;;;;5083757;28;20444;-79
2023/04/16 09:58:25;;;;;;;25.23;22.83;;;12.10;99.90;;;;;;5102770;28;20424;-78
2023/04/16 10:00:56;;;;;;;22.83;20.50;;;12.10;99.90;;;;;;5085362;28;20463;-78
2023/04/16 10:03:32;;;;;;;24.83;22.30;;;12.20;99.90;;;;;;5083631;28;20476;-79
2023/04/16 10:06:02;;;;;;;24.03;21.73;;;12.20;99.90;;;;;;5083632;28;20549;-78
2023/04/16 10:08:31;;;;;;;24.47;22.00;;;12.20;99.90;;;;;;5083377;28;20440;-79
2023/04/16 10:10:59;;;;;;;23.37;20.97;;;12.20;99.90;;;;;;5082845;28;20460;-78
2023/04/16 10:13:29;;;;;;;21.40;19.40;;;12.20;99.90;;;;;;5083397;28;20574;-78
2023/04/16 10:15:58;;;;;;;22.20;20.00;;;12.20;99.90;;;;;;5083045;28;20505;-79
2023/04/16 10:18:27;;;;;;;24.57;22.03;;;12.30;99.90;;;;;;5083540;28;20803;-79
2023/04/16 10:20:55;;;;;;;24.37;21.87;;;12.30;99.90;;;;;;5101402;28;20444;-78
2023/04/16 10:23:23;;;;;;;23.03;20.83;;;12.30;99.90;;;;;;5081003;28;20505;-78
2023/04/16 10:25:54;;;;;;;21.87;19.77;;;12.40;99.90;;;;;;5080441;28;20452;-78
2023/04/16 10:28:25;;;;;;;22.60;20.50;;;12.40;99.90;;;;;;5080712;28;20433;-78
2023/04/16 10:30:56;;;;;;;21.43;19.50;;;12.40;99.90;;;;;;5080392;28;20464;-78
2023/04/16 10:33:27;;;;;;;22.70;20.37;;;12.40;99.90;;;;;;5080288;28;20575;-78
2023/04/16 10:36:08;;;;;;;20.63;18.67;;;12.50;99.90;;;;;;5080074;28;20448;-78
2023/04/16 10:38:39;;;;;;;22.30;20.30;;;12.50;99.90;;;;;;5080041;28;20531;-78
2023/04/16 10:41:09;;;;;;;22.00;19.90;;;12.60;99.90;;;;;;5080600;28;20451;-78
2023/04/16 10:44:33;;;;;;;22.33;20.13;;;12.70;99.90;;;;;;5081180;28;20471;-78
2023/04/16 10:47:02;;;;;;;20.80;18.87;;;12.80;99.90;;;;;;5049080;28;20454;-78
2023/04/16 10:49:30;;;;;;;21.63;19.47;;;12.80;99.90;;;;;;5080922;28;20449;-78
2023/04/16 10:52:00;;;;;;;19.60;17.67;;;12.90;99.90;;;;;;5080525;28;20475;-78
2023/04/16 10:54:30;;;;;;;21.80;19.20;;;13.00;99.90;;;;;;5080918;28;20809;-79
2023/04/16 10:57:03;;;;;;;21.83;19.83;;;13.10;99.90;;;;;;5080713;28;20519;-79
2023/04/16 10:59:34;;;;;;;21.20;19.10;;;13.10;99.90;;;;;;5080217;28;20444;-78
2023/04/16 11:02:07;;;;;;;21.00;19.00;;;13.10;99.90;;;;;;5080238;28;20460;-78
2023/04/16 11:04:36;;;;;;;20.97;19.03;;;13.20;99.90;;;;;;5098405;28;20903;-78
2023/04/16 11:07:07;;;;;;;22.63;20.53;;;13.30;99.90;;;;;;5097934;28;20441;-78
2023/04/16 11:10:01;;;;;;;20.87;18.10;;;13.30;99.90;;;;;;5097944;28;20440;-78
2023/04/16 11:12:36;;;;;;;21.90;19.80;;;13.40;99.90;;;;;;5079697;28;20469;-79
2023/04/16 11:15:07;;;;;;;20.27;18.27;;;13.50;99.90;;;;;;5079874;28;20981;-78
2023/04/16 11:17:38;;;;;;;23.07;20.83;;;13.50;99.90;;;;;;5079846;28;20448;-78
2023/04/16 11:20:09;;;;;;;20.90;19.07;;;13.60;99.90;;;;;;5079873;28;20491;-78
2023/04/16 11:22:47;;;;;;;19.70;17.83;;;13.60;99.90;;;;;;5079753;28;21069;-78
2023/04/16 11:25:19;;;;;;;19.97;18.07;;;13.70;99.90;;;;;;5079554;28;20444;-78
2023/04/16 11:27:50;;;;;;;20.73;18.63;;;13.80;99.90;;;;;;5080548;28;20459;-79
2023/04/16 11:30:18;;;;;;;20.67;18.67;;;13.80;99.90;;;;;;5080884;28;20553;-79
2023/04/16 11:32:47;;;;;;;21.27;19.37;;;13.90;99.90;;;;;;5080610;28;20460;-79
2023/04/16 11:35:17;;;;;;;20.00;18.10;;;13.90;99.90;;;;;;5099011;28;20470;-79
2023/04/16 11:37:47;;;;;;;21.17;19.07;;;13.90;99.90;;;;;;5080497;28;20801;-79
2023/04/16 11:40:15;;;;;;;20.10;17.40;;;14.00;99.90;;;;;;5080274;28;20463;-79
2023/04/16 11:42:44;;;;;;;20.50;18.70;;;14.00;99.90;;;;;;5098199;28;20456;-79
2023/04/16 11:45:14;;;;;;;20.63;18.73;;;14.10;99.90;;;;;;5080489;28;20453;-79
2023/04/16 11:47:46;;;;;;;18.00;16.40;;;14.10;99.90;;;;;;5080175;28;20962;-79
2023/04/16 11:50:18;;;;;;;19.03;17.23;;;14.20;99.90;;;;;;5098574;28;20464;-79
2023/04/16 11:52:47;;;;;;;19.07;17.27;;;14.20;99.90;;;;;;5098419;28;20448;-78
2023/04/16 11:55:16;;;;;;;19.67;17.87;;;14.30;99.90;;;;;;5079726;28;20448;-79
2023/04/16 11:57:44;;;;;;;19.87;18.07;;;14.30;99.90;;;;;;5078949;28;20451;-78
2023/04/16 12:00:15;;;;;;;19.33;17.40;;;14.40;99.90;;;;;;5078639;28;20466;-78
2023/04/16 12:02:45;;;;;;;19.37;17.60;;;14.40;99.90;;;;;;5078883;28;20567;-78
2023/04/16 12:05:27;;;;;;;19.07;17.30;;;14.50;99.90;;;;;;5078372;28;20456;-78
2023/04/16 12:07:56;;;;;;;18.70;17.00;;;14.60;99.90;;;;;;5078914;28;20472;-78
2023/04/16 12:10:24;;;;;;;18.43;16.63;;;14.60;99.90;;;;;;5078626;28;20463;-78
2023/04/16 12:12:52;;;;;;;19.70;17.77;;;14.60;99.90;;;;;;5078046;28;20469;-78
2023/04/16 12:15:22;;;;;;;18.70;16.90;;;14.60;99.90;;;;;;5079071;28;20449;-78
2023/04/16 12:17:53;;;;;;;19.93;18.13;;;14.60;99.90;;;;;;5081432;28;20448;-78
2023/04/16 12:20:21;;;;;;;18.97;17.17;;;14.70;99.90;;;;;;5081417;28;20499;-78
2023/04/16 12:22:51;;;;;;;20.20;18.30;;;14.70;99.90;;;;;;5081038;28;20464;-78
2023/04/16 12:25:19;;;;;;;20.53;18.43;;;14.80;99.90;;;;;;5082200;28;20444;-78
2023/04/16 12:27:50;;;;;;;19.47;17.70;;;14.80;99.90;;;;;;5081958;28;20447;-78
2023/04/16 12:30:23;;;;;;;19.57;17.90;;;14.80;99.90;;;;;;5080692;28;20437;-78
2023/04/16 12:32:54;;;;;;;19.17;17.37;;;14.90;99.90;;;;;;5078993;28;20464;-79
2023/04/16 12:35:33;;;;;;;17.83;16.23;;;14.90;99.90;;;;;;5080013;28;20463;-78
2023/04/16 12:38:02;;;;;;;20.03;18.23;;;14.80;99.90;;;;;;5080924;28;20956;-78
2023/04/16 12:40:30;;;;;;;20.37;18.47;;;14.90;99.90;;;;;;5079599;28;20456;-78
2023/04/16 12:42:58;;;;;;;19.20;17.50;;;14.90;99.90;;;;;;5096351;28;20968;-78
2023/04/16 12:45:28;;;;;;;19.97;18.00;;;14.90;99.90;;;;;;5078730;28;20452;-78
2023/04/16 12:47:56;;;;;;;19.67;18.00;;;15.00;99.90;;;;;;5083057;28;20448;-79
2023/04/16 12:50:24;;;;;;;19.20;17.40;;;15.00;99.90;;;;;;5089902;28;20546;-79